Time;durP1;ratioP1;P1;durP2;ratioP2;P2;SDS_P1;SDS_P2;PMS_P1;PMS_P2;Temp;Humidity;BMP_temperature;BMP_pressure;BME280_temperature;BME280_humidity;BME280_pressure;Samples;Min_cycle;Max_cycle;Signal;HPM_P1;HPM_P2
2023/09/29 00:01:38;;;;;;;23.38;7.88;;;15.10;99.90;;;;;;5099759;28;20035;-45
2023/09/29 00:04:07;;;;;;;25.27;8.57;;;15.00;99.90;;;;;;5098366;28;20047;-46
2023/09/29 00:06:33;;;;;;;29.33;8.70;;;15.10;99.90;;;;;;5102577;28;20039;-45
2023/09/29 00:08:59;;;;;;;21.13;8.15;;;15.10;99.90;;;;;;5084018;28;20075;-49
2023/09/29 00:11:26;;;;;;;22.00;8.18;;;15.00;99.90;;;;;;5102313;28;20040;-47
2023/09/29 00:13:51;;;;;;;21.23;7.68;;;15.00;99.90;;;;;;5102249;28;20097;-45
2023/09/29 00:16:17;;;;;;;21.75;7.47;;;15.10;99.90;;;;;;5102484;28;20043;-48
2023/09/29 00:18:42;;;;;;;16.23;7.35;;;15.00;99.90;;;;;;5102233;28;20107;-48
2023/09/29 00:21:08;;;;;;;17.55;7.53;;;15.00;99.90;;;;;;5134643;27;20047;-46
2023/09/29 00:23:35;;;;;;;21.13;8.27;;;15.10;99.90;;;;;;5101926;28;20046;-45
2023/09/29 00:26:01;;;;;;;23.48;8.38;;;15.10;99.90;;;;;;5101290;28;20402;-50
2023/09/29 00:28:27;;;;;;;20.20;7.55;;;15.10;99.90;;;;;;5102686;27;20317;-47
2023/09/29 00:30:53;;;;;;;20.00;7.68;;;15.10;99.90;;;;;;5101487;28;20098;-46
2023/09/29 00:33:19;;;;;;;23.00;8.32;;;15.10;99.90;;;;;;5100109;28;20050;-45
2023/09/29 00:35:45;;;;;;;18.95;7.15;;;15.10;99.90;;;;;;5084263;28;20058;-48
2023/09/29 00:38:11;;;;;;;19.40;7.40;;;15.10;99.90;;;;;;5102388;28;20067;-46
2023/09/29 00:40:37;;;;;;;20.30;6.88;;;15.10;99.90;;;;;;5102931;28;20039;-48
2023/09/29 00:43:03;;;;;;;17.95;7.30;;;15.00;99.90;;;;;;5100805;28;20358;-46
2023/09/29 00:45:29;;;;;;;19.83;8.00;;;15.10;99.90;;;;;;5102056;28;20184;-48
2023/09/29 00:48:07;;;;;;;24.45;7.88;;;15.00;99.90;;;;;;5101753;28;20428;-46
2023/09/29 00:50:34;;;;;;;16.50;7.20;;;15.00;99.90;;;;;;5100870;28;20107;-44
2023/09/29 00:53:07;;;;;;;23.15;7.50;;;15.00;99.90;;;;;;5101648;27;20797;-46
2023/09/29 00:55:35;;;;;;;20.00;7.22;;;15.00;99.90;;;;;;5101937;28;20048;-45
2023/09/29 00:58:03;;;;;;;19.23;7.10;;;15.00;99.90;;;;;;5101454;28;20124;-46
2023/09/29 01:02:59;;;;;;;18.25;6.93;;;15.00;99.90;;;;;;5100149;28;20052;-45
2023/09/29 01:05:26;;;;;;;20.90;6.85;;;15.00;99.90;;;;;;5093207;28;20044;-46
2023/09/29 01:07:52;;;;;;;21.75;7.18;;;15.00;99.90;;;;;;5099847;28;20040;-47
2023/09/29 01:10:18;;;;;;;21.50;7.43;;;15.00;99.90;;;;;;5100485;28;20048;-47
2023/09/29 01:12:44;;;;;;;22.30;7.70;;;15.00;99.90;;;;;;5099025;28;20047;-46
2023/09/29 01:15:15;;;;;;;19.70;7.72;;;15.00;99.90;;;;;;5101592;28;20150;-44
2023/09/29 01:17:42;;;;;;;21.13;7.13;;;15.10;99.90;;;;;;5101008;28;20047;-46
2023/09/29 01:20:16;;;;;;;22.13;7.60;;;15.10;99.90;;;;;;5101098;28;20589;-46
2023/09/29 01:22:48;;;;;;;16.02;7.18;;;15.10;99.90;;;;;;5100662;28;20498;-48
2023/09/29 01:25:15;;;;;;;21.60;7.63;;;15.10;99.90;;;;;;5094423;28;20512;-48
2023/09/29 01:27:41;;;;;;;17.65;6.68;;;15.10;99.90;;;;;;5100889;28;20753;-47
2023/09/29 01:30:08;;;;;;;25.15;8.40;;;15.20;99.90;;;;;;5100916;28;20067;-48
2023/09/29 01:32:34;;;;;;;17.83;7.07;;;15.10;99.90;;;;;;5099059;28;20040;-46
2023/09/29 01:35:00;;;;;;;20.30;7.30;;;15.10;99.90;;;;;;5100967;28;20132;-45
2023/09/29 01:37:26;;;;;;;23.92;6.90;;;15.20;99.90;;;;;;5101064;28;20044;-45
2023/09/29 01:39:52;;;;;;;20.17;6.80;;;15.20;99.90;;;;;;5100774;28;20529;-44
2023/09/29 01:42:18;;;;;;;22.25;7.53;;;15.20;99.90;;;;;;5099999;28;20106;-45
2023/09/29 01:44:44;;;;;;;26.48;7.40;;;15.20;99.90;;;;;;5101188;28;20051;-45
2023/09/29 01:47:10;;;;;;;18.15;7.30;;;15.20;99.90;;;;;;5101092;28;20403;-46
2023/09/29 01:49:36;;;;;;;19.50;7.68;;;15.20;99.90;;;;;;5100957;28;20044;-46
2023/09/29 01:52:02;;;;;;;18.52;6.57;;;15.20;99.90;;;;;;5100664;28;20559;-45
2023/09/29 01:54:28;;;;;;;22.45;6.35;;;15.20;99.90;;;;;;5100673;28;20039;-46
2023/09/29 01:56:54;;;;;;;17.25;6.88;;;15.30;99.90;;;;;;5099308;28;20048;-44
2023/09/29 01:59:19;;;;;;;14.15;7.50;;;15.30;99.90;;;;;;5101315;28;20386;-45
2023/09/29 02:01:45;;;;;;;22.38;7.72;;;15.30;99.90;;;;;;5095615;28;20032;-45
2023/09/29 02:04:11;;;;;;;20.30;6.65;;;15.30;99.90;;;;;;5091290;28;20969;-47
2023/09/29 02:06:40;;;;;;;14.63;6.40;;;15.30;99.90;;;;;;5115270;27;20122;-50
2023/09/29 02:09:08;;;;;;;15.70;6.60;;;15.30;99.90;;;;;;5100328;28;20054;-45
2023/09/29 02:11:35;;;;;;;18.00;6.75;;;15.20;99.90;;;;;;5098787;28;20043;-45
2023/09/29 02:14:03;;;;;;;14.45;6.72;;;15.20;99.90;;;;;;5100179;28;20047;-46
2023/09/29 02:16:30;;;;;;;12.88;5.75;;;15.20;99.90;;;;;;5100106;28;20074;-47
2023/09/29 02:18:56;;;;;;;16.58;5.97;;;15.30;99.90;;;;;;5098275;28;20151;-46
2023/09/29 02:21:27;;;;;;;19.70;6.85;;;15.30;99.90;;;;;;5099814;28;20043;-45
2023/09/29 02:23:55;;;;;;;15.73;6.50;;;15.30;99.90;;;;;;5099972;28;20520;-45
2023/09/29 02:26:22;;;;;;;18.27;5.97;;;15.30;99.90;;;;;;5098866;28;20047;-47
2023/09/29 02:28:48;;;;;;;13.93;5.88;;;15.30;99.90;;;;;;5081740;28;20151;-47
2023/09/29 02:31:14;;;;;;;20.08;6.88;;;15.30;99.90;;;;;;5100028;27;20051;-45
2023/09/29 02:33:40;;;;;;;16.77;5.93;;;15.30;99.90;;;;;;5099894;28;20092;-45
2023/09/29 02:36:09;;;;;;;16.45;6.05;;;15.30;99.90;;;;;;5098696;28;20043;-46
2023/09/29 02:38:37;;;;;;;14.32;5.75;;;15.30;99.90;;;;;;5099719;28;20485;-45
2023/09/29 02:41:04;;;;;;;19.45;5.63;;;15.30;99.90;;;;;;5099537;28;20243;-46
2023/09/29 02:43:30;;;;;;;13.98;5.25;;;15.30;99.90;;;;;;5098902;28;20040;-46
2023/09/29 02:45:56;;;;;;;15.10;5.40;;;15.40;99.90;;;;;;5099743;28;20102;-45
2023/09/29 02:48:22;;;;;;;16.27;4.97;;;15.40;99.90;;;;;;5099742;28;20372;-45
2023/09/29 02:50:48;;;;;;;18.17;5.07;;;15.40;99.90;;;;;;5099633;28;20092;-46
2023/09/29 02:53:14;;;;;;;17.63;5.55;;;15.40;99.90;;;;;;5099466;28;20047;-44
2023/09/29 02:55:40;;;;;;;19.33;5.32;;;15.40;99.90;;;;;;5100194;28;20043;-46
2023/09/29 02:58:07;;;;;;;15.90;5.22;;;15.40;99.90;;;;;;5097960;28;20087;-47
2023/09/29 03:00:33;;;;;;;17.02;5.22;;;15.40;99.90;;;;;;5099933;28;20035;-45
2023/09/29 03:02:59;;;;;;;15.48;4.95;;;15.50;99.90;;;;;;5086423;28;20046;-45
2023/09/29 03:05:26;;;;;;;20.60;6.38;;;15.50;99.90;;;;;;5099666;28;20035;-48
2023/09/29 03:07:52;;;;;;;13.05;4.70;;;15.50;99.90;;;;;;5099384;28;20047;-45
2023/09/29 03:10:18;;;;;;;15.02;5.03;;;15.50;99.90;;;;;;5099850;28;20043;-44
2023/09/29 03:12:44;;;;;;;21.73;4.70;;;15.60;99.90;;;;;;5097704;28;20248;-45
2023/09/29 03:15:13;;;;;;;14.52;4.55;;;15.60;99.90;;;;;;5098532;28;20127;-45
2023/09/29 03:17:39;;;;;;;17.58;6.30;;;15.60;99.90;;;;;;5100016;28;20054;-45
2023/09/29 03:20:09;;;;;;;17.88;5.43;;;15.60;99.90;;;;;;5102125;28;20430;-47
2023/09/29 03:22:38;;;;;;;13.10;4.47;;;15.70;99.90;;;;;;5101571;28;20073;-45
2023/09/29 03:25:07;;;;;;;14.13;5.50;;;15.70;99.90;;;;;;5103391;28;20036;-45
2023/09/29 03:27:36;;;;;;;21.77;5.18;;;15.70;99.90;;;;;;5084962;28;20047;-45
2023/09/29 03:30:04;;;;;;;17.40;5.22;;;15.70;99.90;;;;;;5103725;28;20050;-46
2023/09/29 03:32:30;;;;;;;18.33;5.22;;;15.80;99.90;;;;;;5101477;28;20053;-45
2023/09/29 03:34:56;;;;;;;17.60;5.80;;;15.80;99.90;;;;;;5102097;28;20039;-46
2023/09/29 03:37:22;;;;;;;15.35;6.03;;;15.90;99.90;;;;;;5101573;28;20505;-46
2023/09/29 03:39:48;;;;;;;16.55;4.60;;;15.80;99.90;;;;;;5103772;28;20035;-47
2023/09/29 03:42:16;;;;;;;17.25;5.97;;;15.90;99.90;;;;;;5083476;28;20089;-46
2023/09/29 03:44:44;;;;;;;21.33;6.57;;;15.90;99.90;;;;;;5102975;28;20043;-45
2023/09/29 03:47:12;;;;;;;20.98;7.20;;;15.90;99.90;;;;;;5101752;28;20738;-46
2023/09/29 03:49:38;;;;;;;17.23;6.05;;;15.90;99.90;;;;;;5101695;28;20044;-47
2023/09/29 03:52:08;;;;;;;15.85;6.05;;;16.00;99.90;;;;;;5102913;28;20047;-47
2023/09/29 03:54:34;;;;;;;14.90;5.53;;;16.00;99.90;;;;;;5101724;28;20425;-46
2023/09/29 03:57:10;;;;;;;19.15;5.82;;;16.00;99.90;;;;;;5084770;28;20082;-48
2023/09/29 03:59:36;;;;;;;15.15;5.38;;;16.00;99.90;;;;;;5084770;28;20044;-45
2023/09/29 04:02:02;;;;;;;17.60;6.07;;;16.10;99.90;;;;;;5096676;27;20435;-45
2023/09/29 04:04:28;;;;;;;21.23;6.05;;;16.00;99.90;;;;;;5094593;28;20039;-45
2023/09/29 04:06:53;;;;;;;22.58;5.95;;;16.00;99.90;;;;;;5103242;28;20048;-47
2023/09/29 04:09:20;;;;;;;15.45;5.95;;;16.00;99.90;;;;;;5102805;28;20196;-48
2023/09/29 04:11:46;;;;;;;19.00;6.63;;;16.00;99.90;;;;;;5100561;28;20619;-46
2023/09/29 04:14:11;;;;;;;15.60;6.43;;;15.90;99.90;;;;;;5102284;28;20039;-45
2023/09/29 04:16:37;;;;;;;16.75;6.93;;;15.90;99.90;;;;;;5095758;28;20090;-46
2023/09/29 04:19:03;;;;;;;20.38;5.82;;;15.90;99.90;;;;;;5101618;28;20043;-46
2023/09/29 04:21:29;;;;;;;17.52;6.57;;;15.90;99.90;;;;;;5102964;28;20044;-44
2023/09/29 04:23:54;;;;;;;14.18;5.78;;;15.90;99.90;;;;;;5102141;28;20045;-46
2023/09/29 04:26:21;;;;;;;17.77;6.20;;;15.90;99.90;;;;;;5102267;28;20126;-46
2023/09/29 04:28:48;;;;;;;15.23;6.28;;;15.90;99.90;;;;;;5102883;28;20047;-45
2023/09/29 04:31:14;;;;;;;17.70;6.22;;;15.90;99.90;;;;;;5101713;28;20087;-46
2023/09/29 04:33:40;;;;;;;16.23;6.32;;;15.90;99.90;;;;;;5100789;28;20523;-45
2023/09/29 04:36:06;;;;;;;20.15;6.97;;;15.90;99.90;;;;;;5102456;28;20048;-46
2023/09/29 04:38:33;;;;;;;23.98;7.55;;;15.90;99.90;;;;;;5135135;27;20066;-46
2023/09/29 04:40:59;;;;;;;14.73;7.18;;;15.90;99.90;;;;;;5102299;28;20059;-45
2023/09/29 04:43:25;;;;;;;19.45;7.22;;;15.90;99.90;;;;;;5082934;28;20039;-46
2023/09/29 04:45:50;;;;;;;22.33;6.53;;;15.90;99.90;;;;;;5102550;28;20364;-47
2023/09/29 04:48:16;;;;;;;17.70;6.40;;;15.90;99.90;;;;;;5100796;28;20463;-48
2023/09/29 04:50:42;;;;;;;21.02;6.65;;;15.90;99.90;;;;;;5101385;28;20049;-47
2023/09/29 04:53:08;;;;;;;19.02;6.22;;;15.90;99.90;;;;;;5100365;28;20127;-45
2023/09/29 04:55:33;;;;;;;21.33;7.35;;;15.90;99.90;;;;;;5100760;28;20049;-45
2023/09/29 04:57:59;;;;;;;21.25;7.15;;;15.90;99.90;;;;;;5101709;28;20131;-45
2023/09/29 05:00:25;;;;;;;21.55;7.20;;;15.90;99.90;;;;;;5100374;28;20073;-46
2023/09/29 05:02:50;;;;;;;15.50;6.63;;;15.80;99.90;;;;;;5096628;28;20112;-46
2023/09/29 05:05:16;;;;;;;17.77;6.93;;;15.80;99.90;;;;;;5101069;28;20043;-47
2023/09/29 05:07:45;;;;;;;17.08;6.63;;;15.80;99.90;;;;;;5083511;28;20609;-47
2023/09/29 05:10:13;;;;;;;16.08;6.50;;;15.80;99.90;;;;;;5088611;28;20660;-46
2023/09/29 05:12:45;;;;;;;20.52;7.10;;;15.90;99.90;;;;;;5099512;28;20071;-49
2023/09/29 05:15:11;;;;;;;16.38;6.07;;;15.80;99.90;;;;;;5083297;28;20502;-46
2023/09/29 05:17:37;;;;;;;21.27;7.43;;;15.80;99.90;;;;;;5102046;28;20166;-46
2023/09/29 05:20:05;;;;;;;19.17;6.97;;;15.80;99.90;;;;;;5101963;28;20044;-45
2023/09/29 05:22:31;;;;;;;15.38;6.85;;;15.80;99.90;;;;;;5099173;28;20044;-45
2023/09/29 05:24:58;;;;;;;14.80;6.63;;;15.80;99.90;;;;;;5101400;28;20044;-46
2023/09/29 05:27:24;;;;;;;16.92;6.55;;;15.80;99.90;;;;;;5099549;28;20138;-46
2023/09/29 05:29:50;;;;;;;18.85;7.10;;;15.70;99.90;;;;;;5102123;28;20045;-48
2023/09/29 05:32:15;;;;;;;17.92;6.38;;;15.70;99.90;;;;;;5100796;28;20050;-45
2023/09/29 05:34:41;;;;;;;23.83;8.60;;;15.70;99.90;;;;;;5101853;28;20484;-46
2023/09/29 05:37:06;;;;;;;14.48;6.38;;;15.70;99.90;;;;;;5100058;28;20047;-45
2023/09/29 05:39:32;;;;;;;19.13;7.70;;;15.70;99.90;;;;;;5100243;28;20084;-45
2023/09/29 05:41:58;;;;;;;19.85;6.22;;;15.70;99.90;;;;;;5098695;28;20368;-46
2023/09/29 05:44:23;;;;;;;20.27;7.28;;;15.70;99.90;;;;;;5099410;28;20047;-45
2023/09/29 05:46:49;;;;;;;18.38;6.57;;;15.80;99.90;;;;;;5099479;28;20058;-48
2023/09/29 05:49:15;;;;;;;15.15;7.00;;;15.80;99.90;;;;;;5082816;28;20101;-44
2023/09/29 05:51:40;;;;;;;17.67;7.18;;;15.80;99.90;;;;;;5098975;28;20071;-46
2023/09/29 05:54:06;;;;;;;16.88;7.07;;;15.80;99.90;;;;;;5103416;27;20073;-44
2023/09/29 05:56:32;;;;;;;13.68;6.78;;;15.90;99.90;;;;;;5100837;28;20039;-46
2023/09/29 05:58:58;;;;;;;18.73;7.22;;;15.80;99.90;;;;;;5100380;28;20048;-46
2023/09/29 06:01:25;;;;;;;20.05;7.57;;;15.90;99.90;;;;;;5098096;28;20074;-46
2023/09/29 06:03:52;;;;;;;17.15;6.25;;;15.90;99.90;;;;;;5097680;28;20447;-48
2023/09/29 06:06:18;;;;;;;15.50;7.50;;;15.90;99.90;;;;;;5100606;28;20073;-46
2023/09/29 06:08:44;;;;;;;16.38;7.25;;;15.90;99.90;;;;;;5100477;28;20062;-46
2023/09/29 06:11:10;;;;;;;18.33;6.88;;;16.00;99.90;;;;;;5100188;28;20090;-48
2023/09/29 06:13:37;;;;;;;19.10;7.60;;;15.90;99.90;;;;;;5081461;28;20051;-45
2023/09/29 06:16:04;;;;;;;16.20;7.05;;;15.90;99.90;;;;;;5098705;28;20054;-45
2023/09/29 06:18:30;;;;;;;13.05;7.00;;;15.90;99.90;;;;;;5100457;28;20211;-48
2023/09/29 06:20:56;;;;;;;14.57;7.90;;;15.90;99.90;;;;;;5099461;28;20040;-48
2023/09/29 06:23:21;;;;;;;15.73;7.03;;;15.90;99.90;;;;;;5098661;28;20035;-47
2023/09/29 06:25:47;;;;;;;19.77;6.90;;;15.90;99.90;;;;;;5101349;28;20043;-45
2023/09/29 06:28:12;;;;;;;14.27;8.13;;;15.90;99.90;;;;;;5101024;28;20044;-49
2023/09/29 06:30:38;;;;;;;13.95;6.75;;;15.80;99.90;;;;;;5100139;28;20043;-49
2023/09/29 06:33:04;;;;;;;19.55;7.07;;;15.90;99.90;;;;;;5100300;28;20127;-46
2023/09/29 06:35:31;;;;;;;17.95;6.63;;;15.90;99.90;;;;;;5116383;27;20175;-49
2023/09/29 06:37:56;;;;;;;11.30;6.63;;;15.90;99.90;;;;;;5100695;28;20036;-47
2023/09/29 06:40:23;;;;;;;16.70;7.38;;;16.00;99.90;;;;;;5116224;27;20448;-46
2023/09/29 06:42:48;;;;;;;17.45;7.03;;;16.00;99.90;;;;;;5098137;28;20050;-48
2023/09/29 06:45:14;;;;;;;16.50;6.90;;;16.10;99.90;;;;;;5081723;28;20040;-49
2023/09/29 06:47:40;;;;;;;14.63;6.57;;;16.10;99.90;;;;;;5100241;28;20340;-47
2023/09/29 06:50:10;;;;;;;16.25;6.53;;;16.20;99.90;;;;;;5099694;28;20035;-46
2023/09/29 06:52:37;;;;;;;15.95;6.68;;;16.30;99.90;;;;;;5098643;28;20039;-45
2023/09/29 06:55:03;;;;;;;13.43;7.00;;;16.30;99.90;;;;;;5099597;28;20044;-46
2023/09/29 06:57:28;;;;;;;11.32;6.43;;;16.40;99.90;;;;;;5098058;28;20075;-46
2023/09/29 06:59:54;;;;;;;8.98;6.20;;;16.50;99.90;;;;;;5098505;28;20442;-45
2023/09/29 07:02:20;;;;;;;14.13;6.45;;;16.60;99.90;;;;;;5098671;28;20040;-46
2023/09/29 07:04:47;;;;;;;9.70;6.30;;;16.70;99.90;;;;;;5100329;28;20103;-47
2023/09/29 07:07:13;;;;;;;15.20;6.97;;;16.80;99.90;;;;;;5081716;28;20095;-46
2023/09/29 07:09:39;;;;;;;14.57;6.55;;;16.90;99.90;;;;;;5100306;28;20472;-46
2023/09/29 07:12:06;;;;;;;12.02;6.50;;;16.90;99.90;;;;;;5099163;28;20036;-47
2023/09/29 07:14:32;;;;;;;15.35;7.10;;;17.00;99.90;;;;;;5130478;27;20379;-46
2023/09/29 07:16:58;;;;;;;13.00;7.53;;;17.10;99.90;;;;;;5098538;28;20042;-45
2023/09/29 07:19:23;;;;;;;13.90;7.15;;;17.10;99.90;;;;;;5098215;28;20412;-45
2023/09/29 07:21:49;;;;;;;15.20;7.13;;;17.30;99.90;;;;;;5100294;28;20039;-47
2023/09/29 07:24:16;;;;;;;12.77;6.90;;;17.40;99.90;;;;;;5098579;28;20448;-47
2023/09/29 07:26:42;;;;;;;11.15;6.43;;;17.40;99.90;;;;;;5100256;28;20574;-47
2023/09/29 07:29:08;;;;;;;13.30;7.47;;;17.40;99.90;;;;;;5100127;28;20040;-47
2023/09/29 07:31:56;;;;;;;15.57;7.53;;;17.50;99.90;;;;;;5098633;28;20730;-47
2023/09/29 07:34:27;;;;;;;14.55;7.15;;;17.60;99.90;;;;;;5097954;28;20039;-48
2023/09/29 07:36:52;;;;;;;14.20;6.57;;;17.80;99.90;;;;;;5097890;28;20051;-47
2023/09/29 07:39:18;;;;;;;12.70;7.55;;;17.90;99.90;;;;;;5100742;28;20047;-49
2023/09/29 07:41:44;;;;;;;13.57;7.75;;;18.00;99.90;;;;;;5080831;28;20090;-48
2023/09/29 07:44:10;;;;;;;13.23;7.03;;;18.10;99.90;;;;;;5099395;28;20149;-49
2023/09/29 07:46:37;;;;;;;11.20;6.82;;;18.30;99.90;;;;;;5099889;28;20569;-49
2023/09/29 07:49:02;;;;;;;14.88;7.28;;;18.30;99.90;;;;;;5098228;28;20202;-47
2023/09/29 07:51:29;;;;;;;13.80;7.70;;;18.50;99.90;;;;;;5099583;28;20124;-48
2023/09/29 07:53:55;;;;;;;14.95;7.88;;;18.50;99.90;;;;;;5098031;28;20104;-45
2023/09/29 07:56:21;;;;;;;15.60;8.10;;;18.60;99.90;;;;;;5098836;28;20078;-47
2023/09/29 07:58:47;;;;;;;14.38;8.90;;;18.60;99.90;;;;;;5097852;28;20653;-47
2023/09/29 08:01:12;;;;;;;20.83;10.85;;;18.60;99.90;;;;;;5080661;28;20046;-48
2023/09/29 08:03:38;;;;;;;15.73;10.13;;;18.60;99.90;;;;;;5086065;28;20394;-48
2023/09/29 08:06:04;;;;;;;18.65;10.57;;;18.80;99.90;;;;;;5102417;28;20048;-47
2023/09/29 08:08:30;;;;;;;19.88;11.38;;;18.90;99.90;;;;;;5103270;28;20611;-48
2023/09/29 08:10:56;;;;;;;22.77;11.38;;;19.10;99.90;;;;;;5102720;28;20290;-48
2023/09/29 08:13:23;;;;;;;22.73;13.52;;;19.10;99.90;;;;;;5101370;28;20478;-48
2023/09/29 08:15:49;;;;;;;27.17;14.52;;;19.20;99.90;;;;;;5102076;28;20654;-46
2023/09/29 08:18:17;;;;;;;27.20;15.45;;;19.30;99.90;;;;;;5101390;28;20130;-47
2023/09/29 08:20:43;;;;;;;28.33;15.88;;;19.30;99.90;;;;;;5102889;28;20074;-45
2023/09/29 08:23:09;;;;;;;27.42;15.55;;;19.40;99.90;;;;;;5102926;28;20043;-48
2023/09/29 08:25:34;;;;;;;26.63;16.17;;;19.40;99.90;;;;;;5101992;28;20052;-47
2023/09/29 08:28:03;;;;;;;28.20;16.13;;;19.50;99.90;;;;;;5101914;28;20040;-45
2023/09/29 08:30:29;;;;;;;28.00;17.15;;;19.60;99.90;;;;;;5100863;28;20116;-46
2023/09/29 08:32:54;;;;;;;29.05;15.85;;;19.60;99.90;;;;;;5102487;28;20490;-46
2023/09/29 08:35:20;;;;;;;25.85;15.45;;;19.70;99.90;;;;;;5103397;28;20050;-46
2023/09/29 08:37:46;;;;;;;23.23;15.02;;;19.80;99.90;;;;;;5103206;28;20553;-45
2023/09/29 08:40:19;;;;;;;21.50;14.93;;;20.00;99.90;;;;;;5102937;28;20423;-47
2023/09/29 08:42:50;;;;;;;;;;;20.10;99.90;;;;;;5100972;28;20406;-45
2023/09/29 08:45:22;;;;;;;22.60;14.15;;;20.10;99.90;;;;;;5103167;28;19980;-48
2023/09/29 08:47:52;;;;;;;20.73;13.37;;;19.90;99.90;;;;;;5102911;28;20063;-48
2023/09/29 08:50:18;;;;;;;26.50;13.65;;;19.90;99.90;;;;;;5101947;27;20050;-47
2023/09/29 08:52:45;;;;;;;22.70;12.52;;;19.90;99.90;;;;;;5100609;28;20047;-47
2023/09/29 08:55:14;;;;;;;18.23;11.60;;;20.00;99.90;;;;;;5102346;27;20043;-48
2023/09/29 08:57:44;;;;;;;18.02;11.05;;;20.10;99.90;;;;;;5102470;28;20562;-48
2023/09/29 09:00:13;;;;;;;18.30;10.90;;;20.30;99.90;;;;;;5100974;28;20477;-47
2023/09/29 09:02:43;;;;;;;15.98;10.30;;;20.40;99.90;;;;;;5090596;28;20147;-50
2023/09/29 09:05:14;;;;;;;16.98;9.52;;;20.40;99.90;;;;;;5101485;28;20058;-49
2023/09/29 09:07:40;;;;;;;12.25;8.93;;;20.40;99.90;;;;;;5083351;28;20353;-50
2023/09/29 09:10:06;;;;;;;14.65;8.95;;;20.40;99.90;;;;;;5100770;28;20363;-46
2023/09/29 09:12:33;;;;;;;10.80;7.40;;;20.40;99.90;;;;;;5101789;28;20046;-47
2023/09/29 09:15:00;;;;;;;11.98;7.10;;;20.40;99.90;;;;;;5100452;28;20229;-49
2023/09/29 09:17:25;;;;;;;10.60;6.47;;;20.30;99.90;;;;;;5101740;28;20485;-46
2023/09/29 09:19:51;;;;;;;6.53;4.85;;;20.30;99.90;;;;;;5101427;28;20028;-48
2023/09/29 09:22:21;;;;;;;7.53;4.88;;;20.40;99.90;;;;;;5101267;28;20656;-47
2023/09/29 09:24:48;;;;;;;8.68;5.00;;;20.40;99.90;;;;;;5099988;28;20047;-50
2023/09/29 09:27:14;;;;;;;8.65;4.97;;;20.40;99.90;;;;;;5117309;27;20035;-49
2023/09/29 09:29:44;;;;;;;9.38;4.38;;;20.40;99.90;;;;;;5101617;28;20379;-49
2023/09/29 09:32:10;;;;;;;8.75;4.70;;;20.40;99.90;;;;;;5099746;28;20062;-45
2023/09/29 09:34:37;;;;;;;11.52;5.18;;;20.30;99.90;;;;;;5102146;28;20039;-47
2023/09/29 09:37:05;;;;;;;7.80;4.63;;;20.20;99.90;;;;;;5102095;28;20047;-49
2023/09/29 09:39:33;;;;;;;7.15;4.40;;;20.10;99.90;;;;;;5102179;28;20043;-46
2023/09/29 09:41:59;;;;;;;7.43;4.30;;;20.10;99.90;;;;;;5099198;28;20047;-48
2023/09/29 09:44:26;;;;;;;8.32;4.90;;;20.00;99.90;;;;;;5102131;28;20035;-49
2023/09/29 09:47:00;;;;;;;7.55;4.15;;;19.90;99.90;;;;;;5101235;28;20043;-47
2023/09/29 09:49:36;;;;;;;10.27;4.25;;;19.80;99.90;;;;;;5101226;28;20123;-46
2023/09/29 09:52:07;;;;;;;8.30;5.30;;;19.70;99.90;;;;;;5130303;27;20048;-48
2023/09/29 09:54:40;;;;;;;8.45;4.55;;;19.70;99.90;;;;;;5101836;28;20413;-47
2023/09/29 09:57:10;;;;;;;7.50;4.50;;;19.70;99.90;;;;;;5101374;28;20052;-45
2023/09/29 09:59:36;;;;;;;7.93;4.45;;;19.70;99.90;;;;;;5101645;28;20043;-48
2023/09/29 10:02:07;;;;;;;9.02;5.00;;;19.70;99.90;;;;;;5097662;28;20590;-45
2023/09/29 10:04:38;;;;;;;9.75;4.53;;;19.80;99.90;;;;;;5082413;28;20088;-46
2023/09/29 10:07:04;;;;;;;9.63;4.55;;;19.80;99.90;;;;;;5099410;28;20058;-46
2023/09/29 10:09:45;;;;;;;10.15;4.32;;;19.90;99.90;;;;;;5101331;28;20048;-48
2023/09/29 10:12:31;;;;;;;9.60;4.72;;;20.00;99.90;;;;;;5100082;28;20079;-50
2023/09/29 10:14:58;;;;;;;8.13;4.47;;;20.00;99.90;;;;;;5081988;28;20344;-47
2023/09/29 10:17:24;;;;;;;9.15;4.60;;;20.00;99.90;;;;;;5099594;28;20070;-45
2023/09/29 10:19:54;;;;;;;9.77;4.57;;;20.10;99.90;;;;;;5100614;28;20043;-46
2023/09/29 10:22:28;;;;;;;10.88;5.15;;;20.20;99.90;;;;;;5100440;28;20089;-48
2023/09/29 10:24:57;;;;;;;7.68;4.72;;;20.30;99.90;;;;;;5099359;28;20592;-45
2023/09/29 10:27:32;;;;;;;8.85;4.78;;;20.40;99.90;;;;;;5100427;28;20147;-47
2023/09/29 10:30:13;;;;;;;8.77;5.25;;;20.50;99.90;;;;;;5100729;28;20040;-47
2023/09/29 10:32:39;;;;;;;9.73;5.03;;;20.40;99.90;;;;;;5100240;28;20125;-48
2023/09/29 10:35:11;;;;;;;14.80;6.10;;;20.30;99.90;;;;;;5100822;28;20126;-49
2023/09/29 10:37:41;;;;;;;9.95;5.70;;;20.30;99.90;;;;;;5099321;28;20047;-46
2023/09/29 10:40:08;;;;;;;10.30;5.47;;;20.20;99.90;;;;;;5100889;28;20307;-45
2023/09/29 10:42:37;;;;;;;8.55;5.22;;;20.30;99.90;;;;;;5098771;28;20040;-47
2023/09/29 10:45:06;;;;;;;10.05;5.40;;;20.40;99.90;;;;;;5101382;28;20047;-46
2023/09/29 10:47:36;;;;;;;13.23;6.60;;;20.40;99.90;;;;;;5101026;28;20047;-47
2023/09/29 10:50:11;;;;;;;11.88;5.78;;;20.40;99.90;;;;;;5081635;28;20032;-47
2023/09/29 10:52:37;;;;;;;8.15;5.35;;;20.40;99.90;;;;;;5100398;28;20114;-47
2023/09/29 10:55:11;;;;;;;10.32;5.80;;;20.40;99.90;;;;;;5099116;28;20118;-49
2023/09/29 10:57:37;;;;;;;9.95;6.07;;;20.40;99.90;;;;;;5100840;28;20059;-48
2023/09/29 11:00:05;;;;;;;8.98;5.22;;;20.40;99.90;;;;;;5100730;28;20467;-49
2023/09/29 11:02:33;;;;;;;11.27;5.60;;;20.60;99.90;;;;;;5095867;28;20470;-47
2023/09/29 11:05:07;;;;;;;10.73;5.57;;;20.70;99.90;;;;;;5079230;28;20061;-49
2023/09/29 11:07:47;;;;;;;9.27;5.32;;;20.70;99.90;;;;;;5099104;28;20147;-49
2023/09/29 11:10:13;;;;;;;10.98;5.88;;;20.60;99.90;;;;;;5100482;28;20764;-50
2023/09/29 11:12:43;;;;;;;8.80;5.47;;;20.60;99.90;;;;;;5081588;28;20633;-50
2023/09/29 11:15:09;;;;;;;11.27;6.18;;;20.60;99.90;;;;;;5100348;28;20044;-51
2023/09/29 11:17:45;;;;;;;7.68;5.60;;;20.60;99.90;;;;;;5100419;28;20502;-49
2023/09/29 11:20:29;;;;;;;6.70;5.10;;;20.60;99.90;;;;;;5098624;28;20058;-45
2023/09/29 11:23:07;;;;;;;14.35;7.50;;;20.70;99.90;;;;;;5099866;28;20048;-47
2023/09/29 11:25:49;;;;;;;8.93;5.70;;;20.60;99.90;;;;;;5099286;28;20046;-47
2023/09/29 11:28:15;;;;;;;10.00;6.35;;;20.60;99.90;;;;;;5094593;28;20043;-47
2023/09/29 11:30:42;;;;;;;7.10;5.38;;;20.70;99.90;;;;;;5100144;28;20046;-50
2023/09/29 11:33:10;;;;;;;12.07;6.07;;;20.80;99.90;;;;;;5097494;28;20074;-47
2023/09/29 11:35:37;;;;;;;11.32;7.18;;;20.80;99.90;;;;;;5098626;28;20078;-47
2023/09/29 11:38:03;;;;;;;13.23;7.80;;;20.80;99.90;;;;;;5099034;28;20043;-47
2023/09/29 11:40:28;;;;;;;12.70;7.15;;;20.70;99.90;;;;;;5101479;28;20051;-49
2023/09/29 11:42:54;;;;;;;12.35;7.53;;;20.70;99.90;;;;;;5103387;28;20494;-49
2023/09/29 11:45:20;;;;;;;12.13;8.30;;;20.60;99.90;;;;;;5104442;28;20478;-48
2023/09/29 11:47:45;;;;;;;12.10;8.45;;;20.60;99.90;;;;;;5104551;28;20027;-47
2023/09/29 11:50:11;;;;;;;11.90;8.48;;;20.60;99.90;;;;;;5103860;28;20082;-47
2023/09/29 11:52:39;;;;;;;12.57;9.70;;;20.40;99.90;;;;;;5103717;28;20035;-47
2023/09/29 11:55:11;;;;;;;13.35;10.20;;;20.20;99.90;;;;;;5103718;28;20494;-49
2023/09/29 11:57:40;;;;;;;11.00;7.65;;;20.10;99.90;;;;;;5102310;28;20055;-47
2023/09/29 12:00:10;;;;;;;3.95;3.08;;;19.80;99.90;;;;;;5103741;28;20136;-47
2023/09/29 12:02:37;;;;;;;3.75;2.28;;;19.40;99.90;;;;;;5097854;28;20554;-46
2023/09/29 12:05:04;;;;;;;3.85;2.05;;;19.10;99.90;;;;;;5103737;28;20039;-46
2023/09/29 12:07:31;;;;;;;4.85;1.98;;;18.90;99.90;;;;;;5085061;28;20147;-47
2023/09/29 12:09:57;;;;;;;8.00;2.95;;;18.70;99.90;;;;;;5103334;28;20112;-45
2023/09/29 12:12:22;;;;;;;4.55;2.33;;;18.60;99.90;;;;;;5103652;28;20528;-45
2023/09/29 12:14:48;;;;;;;8.70;3.63;;;18.50;99.90;;;;;;5119426;27;20044;-45
2023/09/29 12:17:14;;;;;;;8.27;3.17;;;18.50;99.90;;;;;;5082347;28;20123;-47
2023/09/29 12:19:39;;;;;;;4.28;2.47;;;18.40;99.90;;;;;;5094157;28;20458;-47
2023/09/29 12:22:05;;;;;;;5.70;2.30;;;18.40;99.90;;;;;;5100787;28;20047;-46
2023/09/29 12:24:31;;;;;;;4.18;2.20;;;18.30;99.90;;;;;;5099335;28;20028;-45
2023/09/29 12:26:58;;;;;;;5.03;2.10;;;18.30;99.90;;;;;;5081207;28;20123;-49
2023/09/29 12:29:24;;;;;;;3.67;1.80;;;18.20;99.90;;;;;;5100014;28;20360;-47
2023/09/29 12:31:49;;;;;;;2.63;1.50;;;18.10;99.90;;;;;;5097701;28;20039;-47
2023/09/29 12:34:16;;;;;;;5.20;1.80;;;18.00;99.90;;;;;;5102085;28;20380;-47
2023/09/29 12:36:41;;;;;;;5.20;1.83;;;18.00;99.90;;;;;;5098789;28;20043;-47
2023/09/29 12:39:10;;;;;;;3.08;1.20;;;18.10;99.90;;;;;;5102237;28;20349;-47
2023/09/29 12:41:37;;;;;;;4.68;1.92;;;18.10;99.90;;;;;;5101744;28;20100;-47